Time,TemperatureF,DewpointF,PressureIn,WindDirection,WindDirectionDegrees,WindSpeedMPH,WindSpeedGustMPH,Humidity,HourlyPrecipIn,Conditions,Clouds,dailyrainin,SoftwareType,DateUTC
2013-01-24 00:05:00,51.7,46.4,29.98,WSW,253,2.0,2.0,82,0.00,,,0.00,Wunderground v.1.15,2013-01-24 08:05:00,
2013-01-24 00:10:00,51.6,46.0,29.97,WNW,297,2.0,2.0,81,0.00,,,0.00,Wunderground v.1.15,2013-01-24 08:10:00,
2013-01-24 00:20:00,50.7,45.7,29.98,ESE,115,1.0,1.0,83,0.00,,,0.00,Wunderground v.1.15,2013-01-24 08:20:00,
2013-01-24 00:25:00,50.8,45.8,29.99,ESE,123,1.0,1.0,83,0.00,,,0.00,Wunderground v.1.15,2013-01-24 08:25:00,
2013-01-24 00:30:00,50.8,45.5,29.99,West,267,2.0,2.0,82,0.00,,,0.00,Wunderground v.1.15,2013-01-24 08:30:00,
2013-01-24 00:35:00,51.0,45.4,29.99,WNW,302,1.0,3.0,81,0.00,,,0.00,Wunderground v.1.15,2013-01-24 08:35:00,
2013-01-24 00:40:00,50.8,45.8,29.99,NW,305,1.0,2.0,83,0.00,,,0.00,Wunderground v.1.15,2013-01-24 08:40:00,
2013-01-24 00:45:00,50.7,45.7,29.99,ENE,71,2.0,2.0,83,0.00,,,0.00,Wunderground v.1.15,2013-01-24 08:45:00,
2013-01-24 00:55:00,50.1,45.5,29.99,ENE,75,1.0,2.0,84,0.00,,,0.00,Wunderground v.1.15,2013-01-24 08:55:00,
2013-01-24 01:00:00,50.4,45.7,29.99,NNW,335,1.0,1.0,84,0.00,,,0.00,Wunderground v.1.15,2013-01-24 09:00:00,
2013-01-24 01:10:00,50.4,45.4,30.01,SSW,212,1.0,1.0,83,0.00,,,0.00,Wunderground v.1.15,2013-01-24 09:10:00,
2013-01-24 01:15:00,50.3,45.6,30.02,WSW,257,1.0,1.0,84,0.00,,,0.00,Wunderground v.1.15,2013-01-24 09:15:00,
2013-01-24 01:20:00,50.2,45.2,30.02,SSE,149,1.0,1.0,83,0.00,,,0.00,Wunderground v.1.15,2013-01-24 09:20:00,
2013-01-24 01:30:00,50.2,44.9,30.02,ESE,110,1.0,1.0,82,0.00,,,0.00,Wunderground v.1.15,2013-01-24 09:30:00,
2013-01-24 01:35:00,50.3,44.7,30.02,SSE,166,1.0,2.0,81,0.00,,,0.00,Wunderground v.1.15,2013-01-24 09:35:00,
2013-01-24 01:40:00,50.3,44.7,30.02,NE,49,1.0,1.0,81,0.00,,,0.00,Wunderground v.1.15,2013-01-24 09:40:00,
2013-01-24 01:45:00,50.2,45.6,30.03,North,358,2.0,2.0,84,0.00,,,0.00,Wunderground v.1.15,2013-01-24 09:45:00,
2013-01-24 01:50:00,49.7,45.4,30.03,NNW,330,1.0,1.0,85,0.00,,,0.00,Wunderground v.1.15,2013-01-24 09:50:00,
2013-01-24 02:00:00,49.4,45.4,30.03,West,278,1.0,1.0,86,0.00,,,0.00,Wunderground v.1.15,2013-01-24 10:00:00,
2013-01-24 02:10:00,49.4,45.1,30.04,SE,132,1.0,1.0,85,0.00,,,0.00,Wunderground v.1.15,2013-01-24 10:10:00,
2013-01-24 02:15:00,49.7,44.7,30.03,SE,138,2.0,5.0,83,0.00,,,0.00,Wunderground v.1.15,2013-01-24 10:15:00,
2013-01-24 02:20:00,49.9,45.3,30.03,ENE,74,3.0,4.0,84,0.00,,,0.00,Wunderground v.1.15,2013-01-24 10:20:00,
2013-01-24 02:25:00,49.5,45.5,30.03,East,98,2.0,4.0,86,0.00,,,0.00,Wunderground v.1.15,2013-01-24 10:25:00,
2013-01-24 02:35:00,49.2,46.1,30.03,ENE,72,1.0,2.0,89,0.00,,,0.00,Wunderground v.1.15,2013-01-24 10:35:00,
2013-01-24 02:40:00,49.0,45.9,30.03,ENE,72,0.0,0.0,89,0.00,,,0.00,Wunderground v.1.15,2013-01-24 10:40:00,
2013-01-24 02:45:00,48.9,45.8,30.03,ENE,72,0.0,0.0,89,0.00,,,0.00,Wunderground v.1.15,2013-01-24 10:45:00,
2013-01-24 02:50:00,48.9,45.8,30.03,ENE,72,0.0,0.0,89,0.00,,,0.00,Wunderground v.1.15,2013-01-24 10:50:00,
2013-01-24 02:55:00,48.9,45.8,30.03,ENE,72,0.0,0.0,89,0.00,,,0.00,Wunderground v.1.15,2013-01-24 10:55:00,
2013-01-24 03:00:00,48.8,46.0,30.03,NW,320,0.0,0.0,90,0.00,,,0.00,Wunderground v.1.15,2013-01-24 11:00:00,
2013-01-24 03:10:00,48.5,46.0,30.03,West,276,1.0,1.0,91,0.00,,,0.01,Wunderground v.1.15,2013-01-24 11:10:00,
2013-01-24 03:15:00,48.3,46.1,30.03,West,273,1.0,2.0,92,0.00,,,0.01,Wunderground v.1.15,2013-01-24 11:15:00,
2013-01-24 03:20:00,48.2,46.0,30.03,WNW,289,1.0,2.0,92,0.00,,,0.01,Wunderground v.1.15,2013-01-24 11:20:00,
2013-01-24 03:25:00,48.1,46.2,30.03,WNW,298,2.0,2.0,93,0.00,,,0.01,Wunderground v.1.15,2013-01-24 11:25:00,
2013-01-24 03:30:00,48.0,46.1,30.03,West,278,1.0,1.0,93,0.00,,,0.01,Wunderground v.1.15,2013-01-24 11:30:00,
2013-01-24 03:35:00,47.9,46.0,30.03,West,281,1.0,1.0,93,0.00,,,0.01,Wunderground v.1.15,2013-01-24 11:35:00,
2013-01-24 03:40:00,47.9,46.0,30.03,West,281,0.0,0.0,93,0.00,,,0.01,Wunderground v.1.15,2013-01-24 11:40:00,
2013-01-24 03:50:00,48.1,46.5,30.03,NE,39,0.0,0.0,94,0.00,,,0.01,Wunderground v.1.15,2013-01-24 11:50:00,
2013-01-24 03:55:00,48.0,46.4,30.02,ENE,77,1.0,1.0,94,0.00,,,0.01,Wunderground v.1.15,2013-01-24 11:55:00,
2013-01-24 04:05:00,48.0,46.4,30.02,ENE,75,0.0,0.0,94,0.00,,,0.01,Wunderground v.1.15,2013-01-24 12:05:00,
2013-01-24 04:10:00,48.0,46.4,30.02,ENE,74,0.0,0.0,94,0.00,,,0.01,Wunderground v.1.15,2013-01-24 12:10:00,
2013-01-24 04:15:00,47.9,46.3,30.01,ENE,74,0.0,0.0,94,0.00,,,0.01,Wunderground v.1.15,2013-01-24 12:15:00,
2013-01-24 04:20:00,47.8,46.2,30.02,NNW,337,0.0,0.0,94,0.00,,,0.01,Wunderground v.1.15,2013-01-24 12:20:00,
2013-01-24 04:25:00,47.8,46.2,30.02,NNW,337,0.0,0.0,94,0.00,,,0.01,Wunderground v.1.15,2013-01-24 12:25:00,
2013-01-24 04:30:00,47.9,46.3,30.02,WNW,302,0.0,0.0,94,0.00,,,0.01,Wunderground v.1.15,2013-01-24 12:30:00,
2013-01-24 04:40:00,47.8,46.2,30.02,NW,304,1.0,1.0,94,0.00,,,0.01,Wunderground v.1.15,2013-01-24 12:40:00,
2013-01-24 04:45:00,47.7,46.1,30.02,WNW,287,1.0,2.0,94,0.00,,,0.01,Wunderground v.1.15,2013-01-24 12:45:00,
2013-01-24 04:50:00,47.7,46.1,30.02,WNW,291,1.0,2.0,94,0.00,,,0.01,Wunderground v.1.15,2013-01-24 12:50:00,
2013-01-24 04:55:00,47.7,46.1,30.02,WNW,302,1.0,2.0,94,0.00,,,0.01,Wunderground v.1.15,2013-01-24 12:55:00,
2013-01-24 05:00:00,47.7,46.1,30.02,WNW,302,1.0,1.0,94,0.00,,,0.01,Wunderground v.1.15,2013-01-24 13:00:00,
2013-01-24 05:10:00,47.7,46.1,30.02,NNE,32,0.0,0.0,94,0.00,,,0.02,Wunderground v.1.15,2013-01-24 13:10:00,
2013-01-24 05:15:00,47.9,46.5,30.02,ENE,77,1.0,1.0,95,0.00,,,0.02,Wunderground v.1.15,2013-01-24 13:15:00,
2013-01-24 05:20:00,48.0,46.6,30.02,East,85,1.0,1.0,95,0.00,,,0.03,Wunderground v.1.15,2013-01-24 13:20:00,
2013-01-24 05:25:00,48.0,46.6,30.02,East,85,0.0,1.0,95,0.00,,,0.03,Wunderground v.1.15,2013-01-24 13:25:00,
2013-01-24 05:30:00,48.1,46.7,30.02,ENE,75,0.0,0.0,95,0.00,,,0.03,Wunderground v.1.15,2013-01-24 13:30:00,
2013-01-24 05:35:00,48.3,46.9,30.02,East,86,0.0,0.0,95,0.00,,,0.03,Wunderground v.1.15,2013-01-24 13:35:00,
2013-01-24 05:40:00,48.3,46.9,30.02,ENE,76,0.0,1.0,95,0.00,,,0.03,Wunderground v.1.15,2013-01-24 13:40:00,
2013-01-24 05:45:00,48.5,47.1,30.02,ENE,75,0.0,1.0,95,0.00,,,0.03,Wunderground v.1.15,2013-01-24 13:45:00,
2013-01-24 05:55:00,49.1,47.7,30.02,ENE,77,0.0,0.0,95,0.00,,,0.04,Wunderground v.1.15,2013-01-24 13:55:00,
2013-01-24 06:00:00,49.2,47.8,30.02,ENE,76,0.0,0.0,95,0.00,,,0.04,Wunderground v.1.15,2013-01-24 14:00:00,
2013-01-24 06:15:00,50.1,48.7,30.02,NNW,337,1.0,1.0,95,0.00,,,0.04,Wunderground v.1.15,2013-01-24 14:15:00,
2013-01-24 06:20:00,50.3,48.9,30.02,NNW,338,1.0,1.0,95,0.00,,,0.04,Wunderground v.1.15,2013-01-24 14:20:00,
2013-01-24 06:25:00,50.2,48.8,30.02,NNW,337,0.0,0.0,95,0.00,,,0.04,Wunderground v.1.15,2013-01-24 14:25:00,
2013-01-24 06:35:00,50.3,48.9,30.02,NNW,337,0.0,1.0,95,0.00,,,0.04,Wunderground v.1.15,2013-01-24 14:35:00,
2013-01-24 06:40:00,50.1,48.7,30.02,West,281,1.0,1.0,95,0.00,,,0.04,Wunderground v.1.15,2013-01-24 14:40:00,
2013-01-24 06:45:00,49.9,48.5,30.02,WNW,299,1.0,1.0,95,0.00,,,0.04,Wunderground v.1.15,2013-01-24 14:45:00,
2013-01-24 06:50:00,49.7,48.3,30.02,WNW,300,1.0,1.0,95,0.00,,,0.04,Wunderground v.1.15,2013-01-24 14:50:00,
2013-01-24 06:55:00,49.6,48.2,30.03,WNW,300,1.0,1.0,95,0.00,,,0.04,Wunderground v.1.15,2013-01-24 14:55:00,
2013-01-24 07:00:00,49.7,48.3,30.02,WNW,300,1.0,1.0,95,0.00,,,0.04,Wunderground v.1.15,2013-01-24 15:00:00,
2013-01-24 07:10:00,50.1,48.7,30.02,WNW,300,1.0,1.0,95,0.00,,,0.04,Wunderground v.1.15,2013-01-24 15:10:00,
2013-01-24 07:15:00,50.2,49.1,30.02,WNW,300,0.0,1.0,96,0.00,,,0.04,Wunderground v.1.15,2013-01-24 15:15:00,
2013-01-24 07:20:00,50.3,49.2,30.02,WNW,300,0.0,0.0,96,0.00,,,0.04,Wunderground v.1.15,2013-01-24 15:20:00,
2013-01-24 07:25:00,50.3,48.9,30.03,WNW,300,0.0,0.0,95,0.00,,,0.04,Wunderground v.1.15,2013-01-24 15:25:00,
2013-01-24 07:30:00,50.3,48.9,30.03,WNW,300,0.0,0.0,95,0.00,,,0.04,Wunderground v.1.15,2013-01-24 15:30:00,
2013-01-24 07:35:00,50.4,49.3,30.03,WNW,300,0.0,0.0,96,0.00,,,0.04,Wunderground v.1.15,2013-01-24 15:35:00,
2013-01-24 07:45:00,50.6,49.5,30.03,WNW,300,0.0,0.0,96,0.00,,,0.04,Wunderground v.1.15,2013-01-24 15:45:00,
2013-01-24 07:50:00,50.6,49.5,30.03,WNW,300,0.0,0.0,96,0.00,,,0.04,Wunderground v.1.15,2013-01-24 15:50:00,
2013-01-24 07:55:00,50.6,49.5,30.04,WNW,300,0.0,0.0,96,0.00,,,0.04,Wunderground v.1.15,2013-01-24 15:55:00,
2013-01-24 08:00:00,50.7,49.6,30.04,WNW,300,0.0,0.0,96,0.00,,,0.04,Wunderground v.1.15,2013-01-24 16:00:00,
2013-01-24 08:10:00,50.9,49.8,30.04,WNW,300,0.0,0.0,96,0.00,,,0.04,Wunderground v.1.15,2013-01-24 16:10:00,
2013-01-24 08:15:00,51.0,49.9,30.05,WNW,300,0.0,0.0,96,0.00,,,0.04,Wunderground v.1.15,2013-01-24 16:15:00,
2013-01-24 08:20:00,50.9,49.5,30.05,NW,309,0.0,3.0,95,0.00,,,0.04,Wunderground v.1.15,2013-01-24 16:20:00,
2013-01-24 08:30:00,50.4,49.0,30.05,NW,305,3.0,3.0,95,0.00,,,0.04,Wunderground v.1.15,2013-01-24 16:30:00,
2013-01-24 08:35:00,50.4,49.0,30.06,WNW,297,2.0,3.0,95,0.00,,,0.04,Wunderground v.1.15,2013-01-24 16:35:00,
2013-01-24 08:40:00,50.3,48.9,30.06,WNW,302,2.0,2.0,95,0.00,,,0.05,Wunderground v.1.15,2013-01-24 16:40:00,
2013-01-24 08:45:00,50.3,49.2,30.06,NW,305,1.0,2.0,96,0.00,,,0.05,Wunderground v.1.15,2013-01-24 16:45:00,
2013-01-24 08:50:00,50.5,49.4,30.06,NW,305,1.0,1.0,96,0.00,,,0.05,Wunderground v.1.15,2013-01-24 16:50:00,
2013-01-24 08:55:00,50.6,49.5,30.07,NW,305,1.0,1.0,96,0.00,,,0.05,Wunderground v.1.15,2013-01-24 16:55:00,
2013-01-24 09:00:00,50.8,49.7,30.07,NW,305,1.0,1.0,96,0.00,,,0.05,Wunderground v.1.15,2013-01-24 17:00:00,
2013-01-24 09:10:00,51.1,50.0,30.07,NW,305,0.0,0.0,96,0.00,,,0.05,Wunderground v.1.15,2013-01-24 17:10:00,
2013-01-24 09:15:00,51.2,50.1,30.07,NW,305,0.0,0.0,96,0.00,,,0.05,Wunderground v.1.15,2013-01-24 17:15:00,
2013-01-24 09:20:00,51.3,50.2,30.08,NW,305,0.0,0.0,96,0.00,,,0.05,Wunderground v.1.15,2013-01-24 17:20:00,
2013-01-24 09:25:00,51.3,50.2,30.08,NW,305,0.0,0.0,96,0.00,,,0.05,Wunderground v.1.15,2013-01-24 17:25:00,
2013-01-24 09:35:00,51.4,50.3,30.08,NW,305,0.0,0.0,96,0.00,,,0.05,Wunderground v.1.15,2013-01-24 17:35:00,
2013-01-24 09:40:00,51.5,50.4,30.08,NW,305,0.0,0.0,96,0.00,,,0.05,Wunderground v.1.15,2013-01-24 17:40:00,
2013-01-24 09:45:00,51.6,50.5,30.09,NW,305,0.0,0.0,96,0.00,,,0.05,Wunderground v.1.15,2013-01-24 17:45:00,
2013-01-24 09:50:00,51.7,50.6,30.09,NW,305,0.0,0.0,96,0.00,,,0.05,Wunderground v.1.15,2013-01-24 17:50:00,
2013-01-24 09:55:00,51.9,50.8,30.09,NW,305,0.0,0.0,96,0.00,,,0.05,Wunderground v.1.15,2013-01-24 17:55:00,
2013-01-24 10:00:00,51.9,50.8,30.09,NW,305,0.0,0.0,96,0.00,,,0.05,Wunderground v.1.15,2013-01-24 18:00:00,
2013-01-24 10:10:00,51.9,50.8,30.09,West,277,1.0,1.0,96,0.00,,,0.05,Wunderground v.1.15,2013-01-24 18:10:00,
2013-01-24 10:15:00,52.1,51.0,30.10,West,276,1.0,1.0,96,0.00,,,0.05,Wunderground v.1.15,2013-01-24 18:15:00,
2013-01-24 10:20:00,52.2,51.1,30.10,West,276,0.0,0.0,96,0.00,,,0.05,Wunderground v.1.15,2013-01-24 18:20:00,
2013-01-24 10:30:00,52.3,51.2,30.10,West,276,1.0,1.0,96,0.00,,,0.06,Wunderground v.1.15,2013-01-24 18:30:00,
2013-01-24 10:35:00,52.5,51.4,30.10,West,276,1.0,1.0,96,0.00,,,0.06,Wunderground v.1.15,2013-01-24 18:35:00,
2013-01-24 10:40:00,52.9,51.8,30.10,West,276,0.0,0.0,96,0.00,,,0.06,Wunderground v.1.15,2013-01-24 18:40:00,
2013-01-24 10:45:00,53.1,52.0,30.10,West,276,0.0,0.0,96,0.00,,,0.06,Wunderground v.1.15,2013-01-24 18:45:00,
2013-01-24 10:50:00,53.0,51.9,30.09,NNE,22,0.0,0.0,96,0.00,,,0.06,Wunderground v.1.15,2013-01-24 18:50:00,
2013-01-24 10:55:00,53.2,52.1,30.09,NNE,21,0.0,0.0,96,0.00,,,0.06,Wunderground v.1.15,2013-01-24 18:55:00,
2013-01-24 11:00:00,53.5,52.4,30.09,NNE,22,0.0,0.0,96,0.00,,,0.06,Wunderground v.1.15,2013-01-24 19:00:00,
2013-01-24 11:10:00,53.5,52.4,30.09,WNW,284,0.0,0.0,96,0.00,,,0.06,Wunderground v.1.15,2013-01-24 19:10:00,
2013-01-24 11:15:00,53.4,52.3,30.09,WNW,283,0.0,0.0,96,0.00,,,0.06,Wunderground v.1.15,2013-01-24 19:15:00,
2013-01-24 11:20:00,53.7,52.6,30.08,WNW,284,0.0,0.0,96,0.00,,,0.06,Wunderground v.1.15,2013-01-24 19:20:00,
2013-01-24 11:25:00,53.8,52.7,30.08,WNW,284,0.0,0.0,96,0.00,,,0.06,Wunderground v.1.15,2013-01-24 19:25:00,
2013-01-24 11:30:00,54.3,53.2,30.08,WNW,284,0.0,0.0,96,0.00,,,0.06,Wunderground v.1.15,2013-01-24 19:30:00,
2013-01-24 11:40:00,54.7,53.6,30.08,WNW,284,0.0,0.0,96,0.00,,,0.06,Wunderground v.1.15,2013-01-24 19:40:00,
2013-01-24 11:45:00,54.7,53.6,30.08,West,274,0.0,0.0,96,0.00,,,0.06,Wunderground v.1.15,2013-01-24 19:45:00,
2013-01-24 11:50:00,54.9,53.8,30.07,WNW,284,0.0,1.0,96,0.00,,,0.06,Wunderground v.1.15,2013-01-24 19:50:00,
2013-01-24 12:10:00,54.3,53.2,30.07,WNW,289,2.0,3.0,96,0.00,,,0.06,Wunderground v.1.15,2013-01-24 20:10:00,
2013-01-24 12:15:00,54.0,52.9,30.07,West,281,2.0,3.0,96,0.00,,,0.06,Wunderground v.1.15,2013-01-24 20:15:00,
2013-01-24 12:20:00,54.1,53.0,30.07,WSW,242,1.0,1.0,96,0.00,,,0.06,Wunderground v.1.15,2013-01-24 20:20:00,
2013-01-24 12:25:00,54.2,53.1,30.07,ENE,77,0.0,1.0,96,0.00,,,0.06,Wunderground v.1.15,2013-01-24 20:25:00,
2013-01-24 12:35:00,54.4,53.3,30.07,ENE,76,0.0,1.0,96,0.00,,,0.07,Wunderground v.1.15,2013-01-24 20:35:00,
2013-01-24 12:40:00,54.2,53.1,30.08,SE,134,0.0,1.0,96,0.00,,,0.07,Wunderground v.1.15,2013-01-24 20:40:00,
2013-01-24 12:45:00,54.1,53.0,30.07,WSW,249,1.0,1.0,96,0.00,,,0.07,Wunderground v.1.15,2013-01-24 20:45:00,
2013-01-24 12:50:00,54.2,53.1,30.07,WNW,289,1.0,1.0,96,0.04,,,0.08,Wunderground v.1.15,2013-01-24 20:50:00,
2013-01-24 12:55:00,54.4,53.3,30.07,WNW,288,1.0,1.0,96,0.04,,,0.08,Wunderground v.1.15,2013-01-24 20:55:00,
2013-01-24 13:00:00,54.5,53.4,30.07,West,281,0.0,2.0,96,0.04,,,0.08,Wunderground v.1.15,2013-01-24 21:00:00,
2013-01-24 13:10:00,54.0,52.9,30.07,West,266,1.0,1.0,96,0.00,,,0.09,Wunderground v.1.15,2013-01-24 21:10:00,
2013-01-24 13:15:00,53.9,52.8,30.08,WNW,282,1.0,1.0,96,0.00,,,0.09,Wunderground v.1.15,2013-01-24 21:15:00,
2013-01-24 13:20:00,54.1,53.0,30.07,WNW,282,0.0,0.0,96,0.00,,,0.09,Wunderground v.1.15,2013-01-24 21:20:00,
2013-01-24 13:25:00,54.1,53.0,30.08,WNW,284,0.0,0.0,96,0.05,,,0.10,Wunderground v.1.15,2013-01-24 21:25:00,
2013-01-24 13:30:00,54.2,53.1,30.07,WNW,283,0.0,1.0,96,0.07,,,0.11,Wunderground v.1.15,2013-01-24 21:30:00,
2013-01-24 13:40:00,54.3,53.2,30.07,WNW,283,0.0,1.0,96,0.06,,,0.11,Wunderground v.1.15,2013-01-24 21:40:00,
2013-01-24 13:45:00,54.4,53.3,30.07,WNW,282,0.0,1.0,96,0.05,,,0.12,Wunderground v.1.15,2013-01-24 21:45:00,
2013-01-24 13:50:00,54.3,53.2,30.07,WNW,283,0.0,1.0,96,0.07,,,0.12,Wunderground v.1.15,2013-01-24 21:50:00,
2013-01-24 13:55:00,54.2,53.1,30.07,West,278,1.0,1.0,96,0.17,,,0.14,Wunderground v.1.15,2013-01-24 21:55:00,
2013-01-24 14:00:00,54.1,53.0,30.07,West,278,1.0,1.0,96,0.16,,,0.15,Wunderground v.1.15,2013-01-24 22:00:00,
2013-01-24 14:10:00,54.1,53.0,30.07,West,270,2.0,2.0,96,0.08,,,0.16,Wunderground v.1.15,2013-01-24 22:10:00,
2013-01-24 14:15:00,54.2,53.1,30.07,West,276,1.0,2.0,96,0.10,,,0.17,Wunderground v.1.15,2013-01-24 22:15:00,
2013-01-24 14:20:00,54.3,53.5,30.07,West,280,1.0,1.0,97,0.11,,,0.18,Wunderground v.1.15,2013-01-24 22:20:00,
2013-01-24 14:25:00,54.4,53.6,30.07,West,280,1.0,1.0,97,0.10,,,0.19,Wunderground v.1.15,2013-01-24 22:25:00,
2013-01-24 14:30:00,54.4,53.6,30.07,WNW,289,0.0,1.0,97,0.07,,,0.19,Wunderground v.1.15,2013-01-24 22:30:00,
2013-01-24 14:35:00,54.4,53.6,30.07,WNW,288,1.0,1.0,97,0.07,,,0.20,Wunderground v.1.15,2013-01-24 22:35:00,
2013-01-24 14:45:00,54.5,53.7,30.07,West,278,1.0,1.0,97,0.04,,,0.20,Wunderground v.1.15,2013-01-24 22:45:00,
2013-01-24 14:50:00,54.4,53.6,30.07,West,278,1.0,1.0,97,0.04,,,0.21,Wunderground v.1.15,2013-01-24 22:50:00,
2013-01-24 14:55:00,54.4,53.6,30.07,West,264,1.0,1.0,97,0.04,,,0.21,Wunderground v.1.15,2013-01-24 22:55:00,
2013-01-24 15:00:00,54.5,53.7,30.07,West,263,0.0,0.0,97,0.04,,,0.21,Wunderground v.1.15,2013-01-24 23:00:00,
2013-01-24 15:10:00,54.6,53.8,30.07,West,280,0.0,0.0,97,0.00,,,0.21,Wunderground v.1.15,2013-01-24 23:10:00,
2013-01-24 15:20:00,54.8,54.0,30.07,West,280,0.0,1.0,97,0.00,,,0.21,Wunderground v.1.15,2013-01-24 23:20:00,
2013-01-24 15:25:00,54.8,54.0,30.07,West,280,0.0,1.0,97,0.00,,,0.22,Wunderground v.1.15,2013-01-24 23:25:00,
2013-01-24 15:30:00,54.7,53.9,30.08,West,270,0.0,0.0,97,0.00,,,0.22,Wunderground v.1.15,2013-01-24 23:30:00,
2013-01-24 15:35:00,54.7,53.9,30.08,WNW,293,1.0,1.0,97,0.00,,,0.22,Wunderground v.1.15,2013-01-24 23:35:00,
2013-01-24 15:40:00,54.5,53.7,30.08,West,280,1.0,1.0,97,0.00,,,0.22,Wunderground v.1.15,2013-01-24 23:40:00,
2013-01-24 15:50:00,54.4,53.6,30.08,West,274,1.0,2.0,97,0.07,,,0.24,Wunderground v.1.15,2013-01-24 23:50:00,
2013-01-24 15:55:00,54.3,53.5,30.08,West,276,1.0,3.0,97,0.07,,,0.24,Wunderground v.1.15,2013-01-24 23:55:00,
2013-01-24 16:00:00,54.3,53.5,30.09,WNW,284,2.0,2.0,97,0.06,,,0.24,Wunderground v.1.15,2013-01-25 00:00:00,
2013-01-24 16:10:00,54.3,53.5,30.08,NW,324,1.0,5.0,97,0.04,,,0.25,Wunderground v.1.15,2013-01-25 00:10:00,
2013-01-24 16:15:00,54.3,53.5,30.08,West,273,1.0,5.0,97,0.04,,,0.25,Wunderground v.1.15,2013-01-25 00:15:00,
2013-01-24 16:20:00,54.4,53.6,30.09,West,273,1.0,1.0,97,0.04,,,0.25,Wunderground v.1.15,2013-01-25 00:20:00,
2013-01-24 16:30:00,54.4,53.6,30.09,West,263,1.0,1.0,97,0.00,,,0.26,Wunderground v.1.15,2013-01-25 00:30:00,
2013-01-24 16:35:00,54.3,53.5,30.09,WNW,284,1.0,1.0,97,0.00,,,0.26,Wunderground v.1.15,2013-01-25 00:35:00,
2013-01-24 16:40:00,54.3,53.5,30.09,WNW,283,1.0,1.0,97,0.00,,,0.26,Wunderground v.1.15,2013-01-25 00:40:00,
2013-01-24 16:45:00,54.3,53.5,30.09,WNW,288,1.0,1.0,97,0.00,,,0.26,Wunderground v.1.15,2013-01-25 00:45:00,
2013-01-24 16:50:00,54.3,53.5,30.09,West,281,1.0,1.0,97,0.00,,,0.26,Wunderground v.1.15,2013-01-25 00:50:00,
2013-01-24 16:55:00,54.3,53.5,30.09,West,278,1.0,1.0,97,0.00,,,0.26,Wunderground v.1.15,2013-01-25 00:55:00,
2013-01-24 17:00:00,54.3,53.5,30.09,West,278,1.0,1.0,97,0.00,,,0.27,Wunderground v.1.15,2013-01-25 01:00:00,
2013-01-24 17:10:00,54.3,53.5,30.09,West,276,1.0,1.0,97,0.00,,,0.27,Wunderground v.1.15,2013-01-25 01:10:00,
2013-01-24 17:15:00,54.4,53.6,30.09,West,278,0.0,1.0,97,0.00,,,0.27,Wunderground v.1.15,2013-01-25 01:15:00,
2013-01-24 17:25:00,54.4,53.6,30.10,West,277,0.0,0.0,97,0.00,,,0.27,Wunderground v.1.15,2013-01-25 01:25:00,
2013-01-24 17:30:00,54.4,53.6,30.10,West,276,0.0,0.0,97,0.00,,,0.27,Wunderground v.1.15,2013-01-25 01:30:00,
2013-01-24 17:40:00,54.3,53.5,30.10,West,277,0.0,0.0,97,0.00,,,0.27,Wunderground v.1.15,2013-01-25 01:40:00,
2013-01-24 17:45:00,54.3,53.5,30.10,West,278,0.0,0.0,97,0.00,,,0.27,Wunderground v.1.15,2013-01-25 01:45:00,
2013-01-24 17:55:00,54.3,53.5,30.10,West,277,0.0,0.0,97,0.00,,,0.27,Wunderground v.1.15,2013-01-25 01:55:00,
2013-01-24 18:00:00,54.3,53.5,30.10,West,277,0.0,0.0,97,0.00,,,0.27,Wunderground v.1.15,2013-01-25 02:00:00,
2013-01-24 18:10:00,54.5,53.7,30.11,NE,56,0.0,0.0,97,0.00,,,0.28,Wunderground v.1.15,2013-01-25 02:10:00,
2013-01-24 18:15:00,54.5,53.7,30.11,NE,56,0.0,0.0,97,0.00,,,0.28,Wunderground v.1.15,2013-01-25 02:15:00,
2013-01-24 18:20:00,54.5,53.7,30.11,NE,56,0.0,0.0,97,0.00,,,0.28,Wunderground v.1.15,2013-01-25 02:20:00,
2013-01-24 18:25:00,54.5,53.7,30.11,NE,56,0.0,0.0,97,0.00,,,0.28,Wunderground v.1.15,2013-01-25 02:25:00,
2013-01-24 18:30:00,54.5,53.7,30.11,NE,56,0.0,0.0,97,0.00,,,0.29,Wunderground v.1.15,2013-01-25 02:30:00,
2013-01-24 18:35:00,54.5,53.7,30.11,NE,56,0.0,0.0,97,0.00,,,0.29,Wunderground v.1.15,2013-01-25 02:35:00,
2013-01-24 18:45:00,54.5,53.7,30.12,NE,56,0.0,0.0,97,0.00,,,0.29,Wunderground v.1.15,2013-01-25 02:45:00,
2013-01-24 18:50:00,54.5,53.7,30.12,NE,56,0.0,0.0,97,0.00,,,0.29,Wunderground v.1.15,2013-01-25 02:50:00,
2013-01-24 18:55:00,54.5,53.7,30.12,NE,56,0.0,0.0,97,0.00,,,0.29,Wunderground v.1.15,2013-01-25 02:55:00,
2013-01-24 19:00:00,54.5,53.7,30.12,NE,56,0.0,0.0,97,0.00,,,0.29,Wunderground v.1.15,2013-01-25 03:00:00,
2013-01-24 19:10:00,54.5,53.7,30.12,NE,56,0.0,0.0,97,0.00,,,0.29,Wunderground v.1.15,2013-01-25 03:10:00,
2013-01-24 19:15:00,54.5,53.7,30.12,NE,56,0.0,1.0,97,0.00,,,0.29,Wunderground v.1.15,2013-01-25 03:15:00,
2013-01-24 19:20:00,54.5,53.7,30.12,NE,56,0.0,0.0,97,0.00,,,0.29,Wunderground v.1.15,2013-01-25 03:20:00,
2013-01-24 19:25:00,54.5,53.7,30.12,NE,56,0.0,0.0,97,0.00,,,0.29,Wunderground v.1.15,2013-01-25 03:25:00,
2013-01-24 19:30:00,54.4,53.6,30.12,NE,56,0.0,0.0,97,0.00,,,0.29,Wunderground v.1.15,2013-01-25 03:30:00,
2013-01-24 19:35:00,54.5,53.7,30.12,NE,56,0.0,0.0,97,0.00,,,0.29,Wunderground v.1.15,2013-01-25 03:35:00,
2013-01-24 19:40:00,54.4,53.6,30.12,NE,56,0.0,0.0,97,0.00,,,0.29,Wunderground v.1.15,2013-01-25 03:40:00,
2013-01-24 19:50:00,54.3,53.5,30.13,NW,307,0.0,1.0,97,0.00,,,0.29,Wunderground v.1.15,2013-01-25 03:50:00,
2013-01-24 19:55:00,54.3,53.5,30.13,West,277,1.0,1.0,97,0.00,,,0.29,Wunderground v.1.15,2013-01-25 03:55:00,
2013-01-24 20:00:00,54.4,53.6,30.13,West,267,1.0,1.0,97,0.00,,,0.29,Wunderground v.1.15,2013-01-25 04:00:00,
2013-01-24 20:10:00,54.4,53.6,30.13,West,267,0.0,0.0,97,0.00,,,0.29,Wunderground v.1.15,2013-01-25 04:10:00,
2013-01-24 20:15:00,54.4,53.6,30.13,West,267,0.0,1.0,97,0.00,,,0.29,Wunderground v.1.15,2013-01-25 04:15:00,
2013-01-24 20:25:00,54.3,53.5,30.13,West,267,0.0,0.0,97,0.00,,,0.29,Wunderground v.1.15,2013-01-25 04:25:00,
2013-01-24 20:30:00,54.4,53.6,30.13,West,267,0.0,0.0,97,0.00,,,0.29,Wunderground v.1.15,2013-01-25 04:30:00,
2013-01-24 20:35:00,54.4,53.6,30.13,West,267,0.0,0.0,97,0.00,,,0.29,Wunderground v.1.15,2013-01-25 04:35:00,
2013-01-24 20:40:00,54.6,53.8,30.13,ENE,76,0.0,0.0,97,0.00,,,0.29,Wunderground v.1.15,2013-01-25 04:40:00,
2013-01-24 20:45:00,54.6,53.8,30.13,ENE,76,0.0,0.0,97,0.00,,,0.29,Wunderground v.1.15,2013-01-25 04:45:00,
2013-01-24 20:50:00,54.6,53.8,30.13,East,82,0.0,0.0,97,0.00,,,0.29,Wunderground v.1.15,2013-01-25 04:50:00,
2013-01-24 21:00:00,54.6,53.8,30.14,East,82,0.0,0.0,97,0.00,,,0.29,Wunderground v.1.15,2013-01-25 05:00:00,
2013-01-24 21:05:00,54.5,53.7,30.14,NNE,32,0.0,1.0,97,0.00,,,0.29,Wunderground v.1.15,2013-01-25 05:05:00,
2013-01-24 21:10:00,54.5,53.7,30.14,NNE,32,0.0,0.0,97,0.00,,,0.29,Wunderground v.1.15,2013-01-25 05:10:00,
2013-01-24 21:15:00,54.5,53.7,30.14,NNE,33,0.0,0.0,97,0.00,,,0.29,Wunderground v.1.15,2013-01-25 05:15:00,
2013-01-24 21:20:00,54.4,53.6,30.14,NNE,33,0.0,0.0,97,0.00,,,0.29,Wunderground v.1.15,2013-01-25 05:20:00,
2013-01-24 21:25:00,54.4,53.6,30.15,NNE,32,0.0,0.0,97,0.00,,,0.29,Wunderground v.1.15,2013-01-25 05:25:00,
2013-01-24 21:40:00,54.5,53.7,30.15,NNE,32,0.0,0.0,97,0.00,,,0.30,Wunderground v.1.15,2013-01-25 05:40:00,
2013-01-24 21:45:00,54.5,53.7,30.15,NNE,33,0.0,0.0,97,0.00,,,0.30,Wunderground v.1.15,2013-01-25 05:45:00,
2013-01-24 21:55:00,54.2,53.4,30.15,ESE,103,1.0,2.0,97,0.00,,,0.30,Wunderground v.1.15,2013-01-25 05:55:00,
2013-01-24 22:00:00,54.2,53.4,30.15,East,79,1.0,1.0,97,0.00,,,0.30,Wunderground v.1.15,2013-01-25 06:00:00,
2013-01-24 22:10:00,54.3,53.5,30.15,NW,307,0.0,1.0,97,0.00,,,0.31,Wunderground v.1.15,2013-01-25 06:10:00,
2013-01-24 22:15:00,54.3,53.5,30.15,NW,307,1.0,1.0,97,0.00,,,0.31,Wunderground v.1.15,2013-01-25 06:15:00,
2013-01-24 22:20:00,54.1,53.3,30.15,West,281,0.0,0.0,97,0.00,,,0.31,Wunderground v.1.15,2013-01-25 06:20:00,
2013-01-24 22:25:00,54.1,53.3,30.15,WNW,297,0.0,0.0,97,0.00,,,0.31,Wunderground v.1.15,2013-01-25 06:25:00,
2013-01-24 22:30:00,54.0,53.2,30.15,WNW,296,0.0,0.0,97,0.00,,,0.31,Wunderground v.1.15,2013-01-25 06:30:00,
2013-01-24 22:40:00,53.8,53.0,30.15,SSW,203,0.0,0.0,97,0.00,,,0.31,Wunderground v.1.15,2013-01-25 06:40:00,
2013-01-24 22:45:00,53.7,52.9,30.15,SSW,203,0.0,0.0,97,0.00,,,0.31,Wunderground v.1.15,2013-01-25 06:45:00,
2013-01-24 22:50:00,53.8,53.0,30.15,SSW,203,0.0,0.0,97,0.00,,,0.31,Wunderground v.1.15,2013-01-25 06:50:00,
2013-01-24 23:00:00,53.7,52.9,30.15,SSW,203,0.0,0.0,97,0.00,,,0.31,Wunderground v.1.15,2013-01-25 07:00:00,
2013-01-24 23:10:00,53.6,52.8,30.15,SSW,203,0.0,0.0,97,0.00,,,0.31,Wunderground v.1.15,2013-01-25 07:10:00,
2013-01-24 23:15:00,53.6,52.8,30.15,NNW,327,0.0,0.0,97,0.00,,,0.31,Wunderground v.1.15,2013-01-25 07:15:00,
2013-01-24 23:25:00,53.5,52.7,30.15,WNW,290,0.0,0.0,97,0.00,,,0.31,Wunderground v.1.15,2013-01-25 07:25:00,
2013-01-24 23:30:00,53.4,52.6,30.15,WNW,295,0.0,0.0,97,0.00,,,0.31,Wunderground v.1.15,2013-01-25 07:30:00,
2013-01-24 23:35:00,53.3,52.5,30.15,WNW,295,0.0,0.0,97,0.00,,,0.31,Wunderground v.1.15,2013-01-25 07:35:00,
2013-01-24 23:40:00,53.2,52.4,30.15,WNW,295,0.0,0.0,97,0.00,,,0.31,Wunderground v.1.15,2013-01-25 07:40:00,
2013-01-24 23:45:00,53.2,52.4,30.15,North,8,0.0,0.0,97,0.00,,,0.31,Wunderground v.1.15,2013-01-25 07:45:00,
2013-01-24 23:50:00,53.1,52.3,30.14,ENE,70,0.0,0.0,97,0.00,,,0.31,Wunderground v.1.15,2013-01-25 07:50:00,